Time;durP1;ratioP1;P1;durP2;ratioP2;P2;SDS_P1;SDS_P2;PMS_P1;PMS_P2;Temp;Humidity;BMP_temperature;BMP_pressure;BME280_temperature;BME280_humidity;BME280_pressure;Samples;Min_cycle;Max_cycle;Signal;HPM_P1;HPM_P2
2024/04/10 05:52:30;;;;;;;4.43;1.53;;;;;;;;;;10694602;27;20478;-85
2024/04/10 07:06:52;;;;;;;10.85;2.95;;;;;;;;;;10605770;27;19988;-80
2024/04/10 07:12:19;;;;;;;8.40;2.50;;;;;;;;;;10625058;27;20027;-83
2024/04/10 07:17:20;;;;;;;7.30;2.50;;;;;;;;;;10627931;27;20072;-83
2024/04/10 07:22:21;;;;;;;7.07;2.47;;;;;;;;;;10625956;27;20041;-82
2024/04/10 07:27:22;;;;;;;7.70;2.60;;;;;;;;;;10646646;27;20055;-82
2024/04/10 07:32:23;;;;;;;7.72;2.92;;;;;;;;;;10627326;27;20048;-83
2024/04/10 07:37:25;;;;;;;12.45;2.95;;;;;;;;;;10644501;27;20459;-82
2024/04/10 07:42:26;;;;;;;9.75;3.55;;;;;;;;;;10643623;27;20027;-82
2024/04/10 07:47:28;;;;;;;11.90;4.05;;;;;;;;;;10643359;27;20015;-83
2024/04/10 07:52:30;;;;;;;11.13;3.42;;;;;;;;;;10626015;27;20090;-81
2024/04/10 07:57:31;;;;;;;11.30;4.45;;;;;;;;;;10624818;27;20034;-82
2024/04/10 08:02:38;;;;;;;11.05;4.18;;;;;;;;;;10638437;27;20011;-83
2024/04/10 08:07:42;;;;;;;12.02;4.28;;;;;;;;;;10662274;27;20038;-85
2024/04/10 08:13:10;;;;;;;10.40;4.55;;;;;;;;;;10648313;27;20148;-84
2024/04/10 08:18:38;;;;;;;9.48;3.60;;;;;;;;;;10656193;27;20031;-84
2024/04/10 08:23:41;;;;;;;;;;;;;;;;;;10632781;27;20052;-84
2024/04/10 08:28:48;;;;;;;7.18;3.40;;;;;;;;;;10654674;27;19908;-83
2024/04/10 08:33:50;;;;;;;6.88;3.25;;;;;;;;;;10630232;27;20023;-84
2024/04/10 08:38:52;;;;;;;6.85;2.65;;;;;;;;;;10629837;27;20019;-84
2024/04/10 08:44:14;;;;;;;10.10;3.58;;;;;;;;;;10628334;27;20039;-84
2024/04/10 08:49:33;;;;;;;8.27;3.45;;;;;;;;;;10626780;27;20023;-84
2024/04/10 08:54:47;;;;;;;6.38;2.28;;;;;;;;;;10627128;27;20023;-84
2024/04/10 09:05:36;;;;;;;7.45;2.78;;;;;;;;;;10561829;28;20040;-84
2024/04/10 09:10:56;;;;;;;8.15;2.78;;;;;;;;;;10534017;28;20047;-84
2024/04/10 09:22:06;;;;;;;5.40;2.47;;;;;;;;;;10601294;27;20035;-84
2024/04/10 09:27:12;;;;;;;6.38;2.60;;;;;;;;;;10616363;27;20065;-83
2024/04/10 09:32:34;;;;;;;7.90;2.35;;;;;;;;;;10634294;27;20023;-84
2024/04/10 09:37:37;;;;;;;7.15;3.10;;;;;;;;;;10618409;28;20023;-85
2024/04/10 09:43:21;;;;;;;5.97;2.70;;;;;;;;;;10545999;28;20028;-83
2024/04/10 10:00:24;;;;;;;11.80;6.47;;;;;;;;;;10563884;28;20484;-84
2024/04/10 10:05:50;;;;;;;7.15;3.88;;;;;;;;;;10628128;28;20489;-85
2024/04/10 10:11:28;;;;;;;7.35;3.72;;;;;;;;;;10642344;27;20023;-85
2024/04/10 10:16:32;;;;;;;9.00;4.03;;;;;;;;;;10639547;28;20023;-84
2024/04/10 10:21:33;;;;;;;5.32;3.42;;;;;;;;;;10622163;27;20023;-83
2024/04/10 10:26:34;;;;;;;12.90;5.60;;;;;;;;;;10626469;27;20020;-84
2024/04/10 10:31:36;;;;;;;8.13;3.75;;;;;;;;;;10644910;27;20049;-83
2024/04/10 10:36:37;;;;;;;7.70;4.80;;;;;;;;;;10642123;27;20098;-84
2024/04/10 10:41:38;;;;;;;8.52;3.47;;;;;;;;;;10625579;27;20118;-82
2024/04/10 10:46:39;;;;;;;5.40;3.30;;;;;;;;;;10648771;27;20160;-84
2024/04/10 10:51:42;;;;;;;6.28;3.70;;;;;;;;;;10627822;27;20414;-83
2024/04/10 10:56:43;;;;;;;6.95;3.45;;;;;;;;;;10626310;27;20066;-84
2024/04/10 11:01:44;;;;;;;7.00;3.55;;;;;;;;;;10625889;27;20023;-84
2024/04/10 11:06:46;;;;;;;4.65;2.42;;;;;;;;;;10647943;27;20463;-84
2024/04/10 11:11:47;;;;;;;6.07;3.05;;;;;;;;;;10651228;27;20019;-84
2024/04/10 11:16:48;;;;;;;4.72;3.00;;;;;;;;;;10634038;27;20035;-85
2024/04/10 11:21:49;;;;;;;5.97;2.80;;;;;;;;;;10631723;27;20059;-86
2024/04/10 11:26:50;;;;;;;7.18;2.95;;;;;;;;;;10626916;27;20015;-86
2024/04/10 11:31:51;;;;;;;5.75;2.90;;;;;;;;;;10626847;27;20102;-86
2024/04/10 11:36:52;;;;;;;8.70;3.95;;;;;;;;;;10626116;27;20486;-86
2024/04/10 11:41:53;;;;;;;5.68;2.78;;;;;;;;;;10648551;27;20034;-84
2024/04/10 11:46:54;;;;;;;4.78;2.33;;;;;;;;;;10623407;27;20027;-84
2024/04/10 11:51:55;;;;;;;5.53;2.35;;;;;;;;;;10617699;27;20095;-84
2024/04/10 11:56:58;;;;;;;6.88;2.60;;;;;;;;;;10644724;27;20030;-84
2024/04/10 12:01:59;;;;;;;4.00;2.40;;;;;;;;;;10628570;27;20456;-85
2024/04/10 12:07:01;;;;;;;5.30;2.63;;;;;;;;;;10620894;27;20028;-85
2024/04/10 12:12:02;;;;;;;7.15;2.40;;;;;;;;;;10617716;27;20024;-85
2024/04/10 12:17:03;;;;;;;4.63;2.13;;;;;;;;;;10619294;27;20031;-85
2024/04/10 12:22:04;;;;;;;3.95;2.30;;;;;;;;;;10619380;27;20548;-84
2024/04/10 12:27:06;;;;;;;4.38;1.80;;;;;;;;;;10615034;27;20097;-85
2024/04/10 12:32:07;;;;;;;4.40;1.70;;;;;;;;;;10594011;22;20523;-82
2024/04/10 12:42:29;;;;;;;3.37;1.73;;;;;;;;;;10534003;28;20051;-81
2024/04/10 12:47:30;;;;;;;4.32;2.00;;;;;;;;;;10529210;28;20036;-82
2024/04/10 12:52:31;;;;;;;4.85;2.00;;;;;;;;;;10504993;28;20021;-82
2024/04/10 12:57:32;;;;;;;6.85;2.20;;;;;;;;;;10500611;28;20115;-82
2024/04/10 13:02:33;;;;;;;4.25;2.40;;;;;;;;;;10501041;28;20123;-82
2024/04/10 13:07:34;;;;;;;3.78;2.10;;;;;;;;;;10502301;28;20027;-82
2024/04/10 13:12:35;;;;;;;4.40;2.30;;;;;;;;;;10504500;28;20020;-82
2024/04/10 13:17:36;;;;;;;5.70;2.75;;;;;;;;;;10504949;28;20057;-82
2024/04/10 13:22:37;;;;;;;3.90;2.10;;;;;;;;;;10506738;28;20099;-83
2024/04/10 13:27:39;;;;;;;4.40;2.30;;;;;;;;;;10505567;28;20029;-82
2024/04/10 13:32:40;;;;;;;5.38;1.90;;;;;;;;;;10508078;28;20036;-83
2024/04/10 13:37:41;;;;;;;2.92;1.83;;;;;;;;;;10515421;28;20032;-82
2024/04/10 13:42:42;;;;;;;7.20;2.60;;;;;;;;;;10503275;28;20500;-82
2024/04/10 13:47:43;;;;;;;4.40;1.77;;;;;;;;;;10537347;28;20036;-82
2024/04/10 13:52:45;;;;;;;2.83;1.95;;;;;;;;;;10511028;28;20438;-82
2024/04/10 13:57:46;;;;;;;4.18;2.25;;;;;;;;;;10504241;28;20051;-82
2024/04/10 14:02:50;;;;;;;3.13;1.70;;;;;;;;;;10511870;28;20097;-84
2024/04/10 14:07:51;;;;;;;5.28;2.30;;;;;;;;;;10511002;28;20028;-83
2024/04/10 14:12:52;;;;;;;3.28;1.70;;;;;;;;;;10510216;28;20450;-82
2024/04/10 14:17:53;;;;;;;4.75;1.90;;;;;;;;;;10514420;28;20111;-83
2024/04/10 14:22:54;;;;;;;4.20;1.75;;;;;;;;;;10513229;28;20046;-84
2024/04/10 14:27:56;;;;;;;4.57;2.10;;;;;;;;;;10512777;28;20040;-82
2024/04/10 14:32:57;;;;;;;3.75;1.60;;;;;;;;;;10513234;28;20078;-82
2024/04/10 14:37:58;;;;;;;3.58;1.67;;;;;;;;;;10516718;28;20027;-83
2024/04/10 14:42:59;;;;;;;3.55;1.58;;;;;;;;;;10514733;28;20063;-84
2024/04/10 14:48:00;;;;;;;4.63;1.90;;;;;;;;;;10519862;28;20029;-82
2024/04/10 14:53:01;;;;;;;4.18;1.85;;;;;;;;;;10520221;28;20469;-83
2024/04/10 14:58:02;;;;;;;3.95;1.58;;;;;;;;;;10526563;28;20031;-81
2024/04/10 15:03:04;;;;;;;3.42;1.60;;;;;;;;;;10537776;28;20036;-84
2024/04/10 15:08:05;;;;;;;4.03;1.50;;;;;;;;;;10533770;28;20021;-82
2024/04/10 15:13:07;;;;;;;4.78;1.90;;;;;;;;;;10515859;28;20031;-83
2024/04/10 15:18:08;;;;;;;4.38;1.40;;;;;;;;;;10511772;28;20119;-84
2024/04/10 15:23:09;;;;;;;4.95;1.55;;;;;;;;;;10513676;28;20063;-83
2024/04/10 15:28:10;;;;;;;4.15;1.52;;;;;;;;;;10513494;28;20034;-83
2024/04/10 15:33:11;;;;;;;4.85;1.38;;;;;;;;;;10511957;28;20482;-83
2024/04/10 15:38:12;;;;;;;3.85;1.55;;;;;;;;;;10511547;28;20048;-83
2024/04/10 15:43:13;;;;;;;3.95;1.70;;;;;;;;;;10511942;28;20521;-84
2024/04/10 15:48:14;;;;;;;4.95;1.40;;;;;;;;;;10509338;28;20048;-83
2024/04/10 15:53:16;;;;;;;6.50;1.60;;;;;;;;;;10511129;28;20493;-82
2024/04/10 15:58:18;;;;;;;2.88;1.15;;;;;;;;;;10511588;28;20029;-82
2024/04/10 16:03:19;;;;;;;5.03;1.58;;;;;;;;;;10510888;28;20028;-82
2024/04/10 16:08:20;;;;;;;2.50;1.33;;;;;;;;;;10509300;28;20430;-83
2024/04/10 16:13:21;;;;;;;5.15;1.40;;;;;;;;;;10520600;28;20020;-80
2024/04/10 16:18:22;;;;;;;3.38;1.33;;;;;;;;;;10541626;28;20059;-82
2024/04/10 16:23:23;;;;;;;4.75;1.40;;;;;;;;;;10510859;28;20028;-84
2024/04/10 16:28:24;;;;;;;5.95;1.35;;;;;;;;;;10511670;28;20028;-86
2024/04/10 16:33:25;;;;;;;3.85;1.55;;;;;;;;;;10511293;28;20092;-85
2024/04/10 16:38:26;;;;;;;4.15;1.20;;;;;;;;;;10526483;28;20020;-85
2024/04/10 16:43:27;;;;;;;3.00;1.20;;;;;;;;;;10514735;28;20048;-85
2024/04/10 16:48:29;;;;;;;6.25;1.38;;;;;;;;;;10518565;28;20005;-84
2024/04/10 16:53:30;;;;;;;4.00;1.48;;;;;;;;;;10529648;28;20029;-85
2024/04/10 16:58:31;;;;;;;2.50;1.15;;;;;;;;;;10536529;28;20043;-84
2024/04/10 17:03:32;;;;;;;4.97;1.45;;;;;;;;;;10533595;28;20028;-86
2024/04/10 17:08:33;;;;;;;3.75;1.40;;;;;;;;;;10516597;28;20028;-86
2024/04/10 17:13:34;;;;;;;3.55;1.08;;;;;;;;;;10533720;28;20531;-85
2024/04/10 17:23:56;;;;;;;3.42;1.20;;;;;;;;;;10547002;28;20036;-84
2024/04/10 17:28:57;;;;;;;3.10;1.27;;;;;;;;;;10543942;28;20051;-86
2024/04/10 17:33:58;;;;;;;2.75;1.30;;;;;;;;;;10536697;28;20446;-84
2024/04/10 17:38:59;;;;;;;2.28;1.05;;;;;;;;;;10542420;28;20029;-86
2024/04/10 17:44:01;;;;;;;2.50;1.00;;;;;;;;;;10511454;28;20032;-85
2024/04/10 17:49:02;;;;;;;1.52;0.98;;;;;;;;;;10505918;28;20035;-85
2024/04/10 17:54:03;;;;;;;3.72;1.30;;;;;;;;;;10505863;28;20462;-85
2024/04/10 17:59:04;;;;;;;2.70;0.90;;;;;;;;;;10512015;28;20025;-87
2024/04/10 18:04:05;;;;;;;1.75;0.95;;;;;;;;;;10512834;28;20088;-86
2024/04/10 18:09:08;;;;;;;3.42;1.38;;;;;;;;;;10514670;28;20024;-85
2024/04/10 18:14:10;;;;;;;5.95;1.50;;;;;;;;;;10521362;28;20042;-85
2024/04/10 18:19:11;;;;;;;2.65;1.00;;;;;;;;;;10529232;28;20032;-85
2024/04/10 18:24:12;;;;;;;1.85;0.85;;;;;;;;;;10513088;28;20034;-87
2024/04/10 18:29:13;;;;;;;2.33;1.10;;;;;;;;;;10516890;28;20539;-88
